Latest Weather Observations for Cape Jaffa

IDS60801

Issued at 8:31 am CDT Tuesday 22 January 2019 (issued every 10 minutes, with the page automatically refreshed every 10 minutes)

About weather observations | Map of weather stations | Latest weather observations for SA | Other Formats
Station Details ID: 026095 Name: THE LIMESTONE Lat: -36.97 Lon: 139.72 Height: 17.0 m
Data from the previous 72 hours. | See also: Recent months at Cape Jaffa
Date/Time
CDT
Temp
°C
App
Temp
°C
Dew
Point
°C
Rel
Hum
%
Delta-T
°C
Wind Press
QNH
hPa
Press
MSL
hPa
Rain since
9am
mm
Dir  Spd
km/h
Gust
km/h
Spd
kts
Gust
kts
22/08:30am 20.8 22.0 16.0 74 2.9 ESE 4 6 2 3 1013.0 1012.9 0.0
22/08:00am 18.5 19.2 15.6 83 1.7 SSE 6 6 3 3 1012.9 1012.8 0.0
22/07:30am 16.5 16.0 15.0 91 0.9 S 11 15 6 8 1012.7 1012.6 0.0
22/07:00am 15.3 15.7 13.8 91 0.8 S 4 6 2 3 1012.5 1012.4 0.0
22/06:30am 14.3 13.2 13.2 93 0.6 S 11 15 6 8 1012.3 1012.2 0.0
22/06:00am 14.1 13.3 13.0 93 0.6 S 9 11 5 6 1012.2 1012.1 0.0
22/05:30am 14.0 13.1 12.7 92 0.7 E 9 9 5 5 1011.8 1011.7 0.0
22/05:00am 14.6 13.5 13.1 91 0.8 ESE 11 13 6 7 1011.7 1011.6 0.0
22/04:30am 14.4 14.2 13.0 91 0.8 SE 6 7 3 4 1012.0 1011.9 0.0
22/04:00am 14.1 13.3 12.8 92 0.7 SSE 9 11 5 6 1012.2 1012.1 0.0
22/03:30am 13.9 12.9 12.3 90 0.9 S 9 13 5 7 1012.4 1012.3 0.0
22/03:00am 15.8 15.7 14.0 89 1.0 SE 7 11 4 6 1012.4 1012.3 0.0
22/02:30am 15.4 14.9 13.8 90 0.9 SSE 9 13 5 7 1012.6 1012.5 0.0
22/02:00am 15.8 15.0 14.0 89 1.0 ESE 11 13 6 7 1012.8 1012.7 0.0
22/01:30am 15.7 15.2 13.9 89 1.0 SE 9 13 5 7 1013.2 1013.1 0.0
22/01:00am 15.9 14.7 14.1 89 1.0 SSE 13 17 7 9 1013.6 1013.5 0.0
22/12:30am 15.2 14.5 13.2 88 1.1 SSE 9 11 5 6 1014.1 1014.0 0.0
22/12:00am 16.8 16.5 14.4 86 1.4 SSE 9 15 5 8 1014.1 1014.0 0.0
 
Date/Time
CDT
Temp
°C
App
Temp
°C
Dew
Point
°C
Rel
Hum
%
Delta-T
°C
Wind Press
QNH
hPa
Press
MSL
hPa
Rain since
9am
mm
Dir  Spd
km/h
Gust
km/h
Spd
kts
Gust
kts
21/11:30pm 17.6 16.7 14.9 84 1.6 SSE 13 17 7 9 1014.4 1014.3 0.0
21/11:00pm 17.5 17.0 15.0 85 1.5 SSE 11 15 6 8 1014.3 1014.2 0.0
21/10:30pm 17.6 18.0 15.2 86 1.4 SSE 7 11 4 6 1014.5 1014.4 0.0
21/10:00pm 18.3 18.1 15.6 84 1.6 SSE 11 15 6 8 1014.2 1014.1 0.0
21/09:30pm 18.4 17.5 14.9 80 2.0 S 13 19 7 10 1014.0 1013.9 0.0
21/09:00pm 19.2 17.8 14.5 74 2.7 S 15 19 8 10 1014.0 1013.9 0.0
21/08:30pm 20.3 19.4 14.9 71 3.2 SSE 13 17 7 9 1013.9 1013.8 0.0
21/08:00pm 21.5 19.3 14.4 64 4.2 SSE 19 26 10 14 1013.8 1013.7 0.0
21/07:30pm 21.5 19.9 16.0 71 3.3 S 19 24 10 13 1013.6 1013.5 0.0
21/07:00pm 20.5 17.4 15.7 74 2.9 S 26 32 14 17 1013.6 1013.5 0.0
21/06:30pm 21.0 17.7 15.1 69 3.5 S 26 33 14 18 1013.5 1013.4 0.0
21/06:00pm 22.2 18.8 15.8 67 3.8 S 28 33 15 18 1013.5 1013.4 0.0
21/05:30pm 21.6 17.4 15.7 69 3.5 SSW 32 37 17 20 1013.6 1013.5 0.0
21/05:00pm 23.3 19.6 15.9 63 4.5 SSW 30 35 16 19 1013.8 1013.7 0.0
21/04:30pm 22.1 17.7 15.7 67 3.8 SSW 33 39 18 21 1013.8 1013.7 0.0
21/04:00pm 21.7 17.5 15.8 69 3.5 SSW 32 37 17 20 1013.8 1013.7 0.0
21/03:30pm 19.8 15.9 15.4 76 2.6 SSW 30 35 16 19 1014.3 1014.2 0.0
21/03:00pm 20.3 16.1 15.7 75 2.7 SSW 32 35 17 19 1014.5 1014.4 0.0
21/02:30pm 19.9 15.9 15.1 74 2.8 SSW 30 37 16 20 1014.5 1014.4 0.0
21/02:00pm 20.6 17.4 15.4 72 3.1 SSW 26 32 14 17 1014.9 1014.8 0.0
21/01:30pm 20.8 17.6 15.4 71 3.2 SSW 26 30 14 16 1014.9 1014.8 0.0
21/01:00pm 20.9 18.0 15.2 70 3.4 SSW 24 28 13 15 1015.0 1014.9 0.0
21/12:30pm 20.4 17.6 15.4 73 3.0 SSW 24 28 13 15 1015.5 1015.4 0.0
21/12:00pm 20.2 17.3 15.0 72 3.1 SSW 24 28 13 15 1015.6 1015.5 0.0
21/11:30am 20.6 18.6 15.4 72 3.1 SSW 20 24 11 13 1015.9 1015.8 0.0
21/11:00am 20.6 18.5 15.2 71 3.2 SSW 20 24 11 13 1016.2 1016.1 0.0
21/10:30am 22.4 22.4 16.2 68 3.7 SSW 11 17 6 9 1016.6 1016.5 0.0
21/10:00am 21.2 20.6 15.7 71 3.3 SSW 13 17 7 9 1016.8 1016.7 0.0
21/09:30am 21.7 22.5 15.8 69 3.5 SSE 6 15 3 8 1016.9 1016.8 0.0
21/09:00am 19.7 19.8 15.4 76 2.5 SE 9 11 5 6 1016.9 1016.8 0.0
21/08:30am 16.8 16.5 14.4 86 1.4 SE 9 13 5 7 1016.9 1016.8 0.0
21/08:00am 15.4 15.5 14.4 94 0.6 ESE 7 11 4 6 1016.9 1016.8 0.0
21/07:30am 14.9 14.8 13.9 94 0.6 SE 7 13 4 7 1017.1 1017.0 0.0
21/07:00am 14.7 14.2 13.7 94 0.6 SE 9 13 5 7 1016.9 1016.8 0.0
21/06:30am 14.6 13.6 13.5 93 0.6 SE 11 15 6 8 1016.4 1016.3 0.0
21/06:00am 15.0 14.5 13.9 93 0.6 SE 9 13 5 7 1016.5 1016.4 0.0
21/05:30am 15.1 14.3 14.0 93 0.6 ESE 11 19 6 10 1016.3 1016.2 0.0
21/05:00am 15.0 13.8 14.0 94 0.6 SE 13 22 7 12 1016.1 1016.0 0.0
21/04:30am 15.1 14.3 14.0 93 0.6 SSE 11 17 6 9 1016.1 1016.0 0.0
21/04:00am 15.2 14.0 14.1 93 0.6 SSE 13 19 7 10 1016.3 1016.2 0.0
21/03:30am 15.1 13.9 14.0 93 0.6 SSE 13 20 7 11 1016.9 1016.8 0.0
21/03:00am 15.0 13.8 13.9 93 0.6 SSE 13 20 7 11 1017.2 1017.1 0.0
21/02:30am 15.2 13.6 13.9 92 0.7 SSE 15 20 8 11 1017.4 1017.3 0.0
21/02:00am 15.4 13.9 14.1 92 0.7 SSE 15 20 8 11 1018.0 1017.9 0.0
21/01:30am 15.7 14.3 14.4 92 0.7 SSE 15 19 8 10 1018.5 1018.4 0.0
21/01:00am 16.0 13.8 14.5 91 0.9 SSE 19 24 10 13 1019.0 1018.9 0.0
21/12:30am 16.0 14.6 14.5 91 0.9 SSE 15 19 8 10 1019.4 1019.3 0.0
21/12:00am 16.1 13.9 14.5 90 0.9 SSE 19 24 10 13 1019.7 1019.6 0.0
 
Date/Time
CDT
Temp
°C
App
Temp
°C
Dew
Point
°C
Rel
Hum
%
Delta-T
°C
Wind Press
QNH
hPa
Press
MSL
hPa
Rain since
9am
mm
Dir  Spd
km/h
Gust
km/h
Spd
kts
Gust
kts
20/11:30pm 16.2 13.9 14.6 90 0.9 SSE 20 28 11 15 1019.7 1019.6 0.0
20/11:00pm 16.3 14.6 14.7 90 0.9 SSE 17 22 9 12 1019.8 1019.7 0.0
20/10:30pm 16.3 12.8 14.5 89 1.0 SSE 26 37 14 20 1019.9 1019.8 0.0
20/10:00pm 16.7 12.2 14.9 89 1.0 S 32 44 17 24 1019.8 1019.7 0.0
20/09:30pm 16.7 11.6 14.9 89 1.0 S 35 44 19 24 1019.7 1019.6 0.0
20/09:00pm 16.8 11.4 15.0 89 1.0 S 37 44 20 24 1019.8 1019.7 0.0
20/08:30pm 16.7 11.3 14.9 89 1.0 S 37 46 20 25 1019.7 1019.6 0.0
20/08:00pm 17.1 12.0 14.9 87 1.3 SSW 35 44 19 24 1019.3 1019.2 0.0
20/07:30pm 17.7 11.1 14.8 83 1.7 S 43 50 23 27 1018.5 1018.4 0.0
20/07:00pm 18.5 12.0 15.2 81 1.9 SSW 43 50 23 27 1018.6 1018.5 0.0
20/06:30pm 19.3 13.3 15.4 78 2.3 SSW 41 48 22 26 1018.5 1018.4 0.0
20/06:00pm 19.9 13.9 15.5 76 2.6 SSW 41 50 22 27 1018.5 1018.4 0.0
20/05:30pm 19.9 14.2 15.1 74 2.8 S 39 50 21 27 1018.8 1018.7 0.0
20/05:00pm 20.3 13.9 15.3 73 3.0 SSW 43 50 23 27 1018.8 1018.7 0.0
20/04:30pm 20.6 14.5 15.2 71 3.2 SSW 41 50 22 27 1018.9 1018.8 0.0
20/04:00pm 20.8 14.8 15.4 71 3.2 SSW 41 50 22 27 1019.3 1019.2 0.0
20/03:30pm 21.2 15.5 15.1 68 3.6 S 39 48 21 26 1019.7 1019.6 0.0
20/03:00pm 21.5 16.1 15.1 67 3.8 SSW 37 44 20 24 1019.9 1019.8 0.0
20/02:30pm 22.0 17.2 15.6 67 3.8 SSW 35 44 19 24 1020.2 1020.1 0.0
20/02:00pm 21.2 15.5 15.3 69 3.5 SSW 39 46 21 25 1020.3 1020.2 0.0
20/01:30pm 21.5 15.7 14.9 66 3.9 SSW 39 46 21 25 1020.6 1020.5 0.0
20/01:00pm 22.0 16.9 14.9 64 4.2 SSW 35 41 19 22 1020.9 1020.8 0.0
20/12:30pm 22.3 18.2 14.9 63 4.4 SSW 30 35 16 19 1021.3 1021.2 0.0
20/12:00pm 22.1 17.9 14.7 63 4.4 SSW 30 35 16 19 1021.5 1021.4 0.0
20/11:30am 22.3 18.1 14.7 62 4.5 SSW 30 35 16 19 1021.7 1021.6 0.0
20/11:00am 21.4 17.8 14.3 64 4.1 SSW 26 30 14 16 1021.8 1021.7 0.0
20/10:30am 20.9 16.9 14.1 65 3.9 SSW 28 33 15 18 1022.1 1022.0 0.0
20/10:00am 21.3 18.5 14.2 64 4.1 SSW 22 28 12 15 1022.3 1022.2 0.0
20/09:30am 20.4 17.5 14.1 67 3.6 SSW 22 28 12 15 1022.3 1022.2 0.0
20/09:00am 19.9 18.3 12.7 63 4.0 SSE 13 20 7 11 1022.4 1022.3 0.0
20/08:30am 18.7 16.6 13.6 72 2.9 S 17 22 9 12 1022.4 1022.3 0.0
20/08:00am 17.4 16.5 13.7 79 2.1 SSE 11 17 6 9 1022.2 1022.1 0.0
20/07:30am 16.5 15.9 13.6 83 1.6 SSE 9 17 5 9 1022.2 1022.1 0.0
20/07:00am 14.9 14.1 12.9 88 1.1 SSE 9 13 5 7 1022.0 1021.9 0.0
20/06:30am 13.8 12.8 12.2 90 0.9 SE 9 13 5 7 1021.9 1021.8 0.0
20/06:00am 13.8 12.8 12.4 91 0.8 SE 9 13 5 7 1021.9 1021.8 0.0
20/05:30am 13.6 13.0 12.2 91 0.8 SE 7 9 4 5 1021.8 1021.7 0.0
20/05:00am 13.5 12.8 11.9 90 0.9 SSE 7 9 4 5 1022.0 1021.9 0.0
20/04:30am 13.9 13.3 12.3 90 0.9 SE 7 9 4 5 1021.9 1021.8 0.0
20/04:00am 14.1 13.6 12.5 90 0.9 SE 7 9 4 5 1021.9 1021.8 0.0
20/03:30am 13.7 12.6 11.9 89 1.0 SSE 9 11 5 6 1021.9 1021.8 0.0
20/03:00am 14.0 12.9 12.0 88 1.1 SSE 9 11 5 6 1022.1 1022.0 0.0
20/02:30am 13.3 12.4 11.5 89 1.0 SSE 7 9 4 5 1022.4 1022.3 0.0
20/02:00am 14.1 13.0 12.0 87 1.1 SSE 9 13 5 7 1022.6 1022.5 0.0
20/01:30am 14.6 12.9 12.3 86 1.2 SSE 13 17 7 9 1022.9 1022.8 0.0
20/01:00am 14.6 13.2 12.3 86 1.3 SSE 11 13 6 7 1023.1 1023.0 0.0
20/12:30am 15.0 14.0 12.3 84 1.5 SSE 9 13 5 7 1023.3 1023.2 0.0
20/12:00am 15.3 14.0 12.4 83 1.6 SSE 11 19 6 10 1023.2 1023.1 0.0
 
Date/Time
CDT
Temp
°C
App
Temp
°C
Dew
Point
°C
Rel
Hum
%
Delta-T
°C
Wind Press
QNH
hPa
Press
MSL
hPa
Rain since
9am
mm
Dir  Spd
km/h
Gust
km/h
Spd
kts
Gust
kts
19/11:30pm 15.9 13.9 12.8 82 1.7 SSE 15 20 8 11 1023.3 1023.2 0.0
19/11:00pm 15.7 13.3 12.6 82 1.7 S 17 22 9 12 1023.3 1023.2 0.0
19/10:30pm 16.0 13.2 12.7 81 1.8 S 19 24 10 13 1023.4 1023.3 0.0
19/10:00pm 16.2 13.2 12.4 78 2.1 S 20 24 11 13 1023.4 1023.3 0.0
19/09:30pm 16.3 13.2 12.1 76 2.3 S 20 26 11 14 1023.5 1023.4 0.0
19/09:00pm 16.6 13.4 12.0 74 2.5 S 20 26 11 14 1023.2 1023.1 0.0
19/08:30pm 17.1 13.0 11.6 70 3.0 S 24 32 13 17 1023.1 1023.0 0.0
19/08:00pm 17.8 13.3 11.4 66 3.5 S 26 33 14 18 1022.4 1022.3 0.0
19/07:30pm 18.4 13.2 11.7 65 3.7 S 30 39 16 21 1022.2 1022.1 0.0
19/07:00pm 18.7 13.2 12.0 65 3.7 S 32 39 17 21 1022.0 1021.9 0.0
19/06:30pm 19.3 13.6 11.8 62 4.1 S 33 43 18 23 1021.6 1021.5 0.0
19/06:00pm 19.5 13.6 11.3 59 4.5 S 33 41 18 22 1021.5 1021.4 0.0
19/05:30pm 20.0 14.5 11.8 59 4.5 SSW 32 39 17 21 1021.8 1021.7 0.0
19/05:00pm 20.4 14.8 11.6 57 4.9 SSW 32 39 17 21 1021.8 1021.7 0.0
19/04:30pm 20.2 14.6 11.4 57 4.8 SSW 32 39 17 21 1021.9 1021.8 0.0
19/04:00pm 20.9 15.7 11.5 55 5.2 SSW 30 35 16 19 1022.2 1022.1 0.0
19/03:30pm 20.8 15.2 11.4 55 5.2 SSW 32 37 17 20 1022.5 1022.4 0.0
19/03:00pm 21.3 16.1 11.6 54 5.4 SSW 30 35 16 19 1023.0 1022.9 0.0
19/02:30pm 20.7 15.7 10.8 53 5.4 SSW 28 35 15 19 1023.3 1023.2 0.0
19/02:00pm 21.0 16.4 11.1 53 5.5 SSW 26 35 14 19 1023.5 1023.4 0.0
19/01:30pm 20.9 16.4 11.3 54 5.3 SSW 26 35 14 19 1023.5 1023.4 0.0
19/01:00pm 20.4 16.0 10.5 53 5.4 SW 24 33 13 18 1023.6 1023.5 0.0
19/12:30pm 19.9 16.0 10.9 56 4.9 SSW 22 30 12 16 1023.5 1023.4 0.0
19/12:00pm 19.6 15.9 10.3 55 5.0 SSW 20 28 11 15 1023.5 1023.4 0.0
19/11:30am 19.4 15.8 9.9 54 5.1 SSW 19 26 10 14 1023.5 1023.4 0.0
19/11:00am 19.4 16.2 9.9 54 5.1 SSW 17 24 9 13 1023.5 1023.4 0.0
19/10:30am 19.6 16.2 10.6 56 4.9 SSW 19 24 10 13 1023.7 1023.6 0.0
19/10:00am 19.7 17.2 10.9 57 4.8 SW 15 22 8 12 1023.8 1023.7 0.0
19/09:30am 18.8 16.1 10.4 58 4.5 SSW 15 20 8 11 1023.7 1023.6 0.0
19/09:00am 18.3 15.6 10.4 60 4.2 SSW 15 19 8 10 1023.3 1023.2 0.0

Other Formats:

Comma delimited format used in spreadsheet applications
http://www.bom.gov.au/fwo/IDS60801/IDS60801.94813.axf

JavaScript Object Notation format (JSON) in row-major order
http://www.bom.gov.au/fwo/IDS60801/IDS60801.94813.json